sensor_id;sensor_type;location;lat;lon;timestamp;temperature;humidity
20141;DHT22;10231;47.702;9.826;2023-07-29T00:01:08;16.90;99.90
20141;DHT22;10231;47.702;9.826;2023-07-29T00:03:33;16.90;99.90
20141;DHT22;10231;47.702;9.826;2023-07-29T00:05:59;16.90;99.90
20141;DHT22;10231;47.702;9.826;2023-07-29T00:08:24;16.90;99.90
20141;DHT22;10231;47.702;9.826;2023-07-29T00:10:50;16.90;99.90
20141;DHT22;10231;47.702;9.826;2023-07-29T00:13:16;16.90;99.90
20141;DHT22;10231;47.702;9.826;2023-07-29T00:15:41;16.90;99.90
20141;DHT22;10231;47.702;9.826;2023-07-29T00:18:07;16.90;99.90
20141;DHT22;10231;47.702;9.826;2023-07-29T00:20:32;16.90;99.90
20141;DHT22;10231;47.702;9.826;2023-07-29T00:22:58;16.90;99.90
20141;DHT22;10231;47.702;9.826;2023-07-29T00:25:24;16.90;99.90
20141;DHT22;10231;47.702;9.826;2023-07-29T00:27:49;16.90;99.90
20141;DHT22;10231;47.702;9.826;2023-07-29T00:30:15;16.90;99.90
20141;DHT22;10231;47.702;9.826;2023-07-29T00:32:41;16.90;99.90
20141;DHT22;10231;47.702;9.826;2023-07-29T00:35:07;16.90;99.90
20141;DHT22;10231;47.702;9.826;2023-07-29T00:37:32;16.90;99.90
20141;DHT22;10231;47.702;9.826;2023-07-29T00:39:58;16.90;99.90
20141;DHT22;10231;47.702;9.826;2023-07-29T00:42:24;16.90;99.90
20141;DHT22;10231;47.702;9.826;2023-07-29T00:44:50;17.00;99.90
20141;DHT22;10231;47.702;9.826;2023-07-29T00:47:16;16.90;99.90
20141;DHT22;10231;47.702;9.826;2023-07-29T00:49:43;16.90;99.90
20141;DHT22;10231;47.702;9.826;2023-07-29T00:52:09;16.90;99.90
20141;DHT22;10231;47.702;9.826;2023-07-29T00:54:38;16.90;99.90
20141;DHT22;10231;47.702;9.826;2023-07-29T00:57:03;16.90;99.90
20141;DHT22;10231;47.702;9.826;2023-07-29T00:59:30;16.90;99.90
20141;DHT22;10231;47.702;9.826;2023-07-29T01:01:57;16.90;99.90
20141;DHT22;10231;47.702;9.826;2023-07-29T01:04:23;16.80;99.90
20141;DHT22;10231;47.702;9.826;2023-07-29T01:09:48;16.70;99.90
20141;DHT22;10231;47.702;9.826;2023-07-29T01:12:22;16.70;99.90
20141;DHT22;10231;47.702;9.826;2023-07-29T01:17:33;16.70;99.90
20141;DHT22;10231;47.702;9.826;2023-07-29T01:20:05;16.70;99.90
20141;DHT22;10231;47.702;9.826;2023-07-29T01:22:34;16.70;99.90
20141;DHT22;10231;47.702;9.826;2023-07-29T01:25:00;16.70;99.90
20141;DHT22;10231;47.702;9.826;2023-07-29T01:27:26;16.70;99.90
20141;DHT22;10231;47.702;9.826;2023-07-29T01:29:52;16.70;99.90
20141;DHT22;10231;47.702;9.826;2023-07-29T01:35:26;16.70;99.90
20141;DHT22;10231;47.702;9.826;2023-07-29T01:37:55;16.60;99.90
20141;DHT22;10231;47.702;9.826;2023-07-29T01:40:26;16.70;99.90
20141;DHT22;10231;47.702;9.826;2023-07-29T01:42:52;16.60;99.90
20141;DHT22;10231;47.702;9.826;2023-07-29T01:45:18;16.60;99.90
20141;DHT22;10231;47.702;9.826;2023-07-29T01:47:44;16.60;99.90
20141;DHT22;10231;47.702;9.826;2023-07-29T01:50:10;16.60;99.90
20141;DHT22;10231;47.702;9.826;2023-07-29T01:52:35;16.60;99.90
20141;DHT22;10231;47.702;9.826;2023-07-29T01:55:01;16.50;99.90
20141;DHT22;10231;47.702;9.826;2023-07-29T01:57:27;16.60;99.90
20141;DHT22;10231;47.702;9.826;2023-07-29T01:59:52;16.60;99.90
20141;DHT22;10231;47.702;9.826;2023-07-29T02:02:18;16.50;99.90
20141;DHT22;10231;47.702;9.826;2023-07-29T02:04:44;16.50;99.90
20141;DHT22;10231;47.702;9.826;2023-07-29T02:07:10;16.50;99.90
20141;DHT22;10231;47.702;9.826;2023-07-29T02:09:36;16.50;99.90
20141;DHT22;10231;47.702;9.826;2023-07-29T02:12:01;16.50;99.90
20141;DHT22;10231;47.702;9.826;2023-07-29T02:14:28;16.50;99.90
20141;DHT22;10231;47.702;9.826;2023-07-29T02:16:53;16.50;99.90
20141;DHT22;10231;47.702;9.826;2023-07-29T02:19:19;16.40;99.90
20141;DHT22;10231;47.702;9.826;2023-07-29T02:21:44;16.40;99.90
20141;DHT22;10231;47.702;9.826;2023-07-29T02:24:10;16.40;99.90
20141;DHT22;10231;47.702;9.826;2023-07-29T02:26:35;16.40;99.90
20141;DHT22;10231;47.702;9.826;2023-07-29T02:29:01;16.50;99.90
20141;DHT22;10231;47.702;9.826;2023-07-29T02:31:27;16.40;99.90
20141;DHT22;10231;47.702;9.826;2023-07-29T02:33:52;16.40;99.90
20141;DHT22;10231;47.702;9.826;2023-07-29T02:36:18;16.40;99.90
20141;DHT22;10231;47.702;9.826;2023-07-29T02:38:44;16.40;99.90
20141;DHT22;10231;47.702;9.826;2023-07-29T02:41:10;16.40;99.90
20141;DHT22;10231;47.702;9.826;2023-07-29T02:43:37;16.40;99.90
20141;DHT22;10231;47.702;9.826;2023-07-29T02:46:03;16.40;99.90
20141;DHT22;10231;47.702;9.826;2023-07-29T02:48:29;16.40;99.90
20141;DHT22;10231;47.702;9.826;2023-07-29T02:50:55;16.40;99.90
20141;DHT22;10231;47.702;9.826;2023-07-29T02:53:22;16.40;99.90
20141;DHT22;10231;47.702;9.826;2023-07-29T02:55:48;16.30;99.90
20141;DHT22;10231;47.702;9.826;2023-07-29T02:58:14;16.30;99.90
20141;DHT22;10231;47.702;9.826;2023-07-29T03:00:39;16.30;99.90
20141;DHT22;10231;47.702;9.826;2023-07-29T03:03:07;16.20;99.90
20141;DHT22;10231;47.702;9.826;2023-07-29T03:05:33;16.20;99.90
20141;DHT22;10231;47.702;9.826;2023-07-29T03:07:59;16.20;99.90
20141;DHT22;10231;47.702;9.826;2023-07-29T03:10:25;16.20;99.90
20141;DHT22;10231;47.702;9.826;2023-07-29T03:12:50;16.20;99.90
20141;DHT22;10231;47.702;9.826;2023-07-29T03:15:16;16.20;99.90
20141;DHT22;10231;47.702;9.826;2023-07-29T03:17:41;16.10;99.90
20141;DHT22;10231;47.702;9.826;2023-07-29T03:20:07;16.10;99.90
20141;DHT22;10231;47.702;9.826;2023-07-29T03:22:33;16.20;99.90
20141;DHT22;10231;47.702;9.826;2023-07-29T03:24:59;16.20;99.90
20141;DHT22;10231;47.702;9.826;2023-07-29T03:27:24;16.20;99.90
20141;DHT22;10231;47.702;9.826;2023-07-29T03:29:50;16.00;99.90
20141;DHT22;10231;47.702;9.826;2023-07-29T03:32:15;16.00;99.90
20141;DHT22;10231;47.702;9.826;2023-07-29T03:34:41;16.00;99.90
20141;DHT22;10231;47.702;9.826;2023-07-29T03:37:06;16.10;99.90
20141;DHT22;10231;47.702;9.826;2023-07-29T03:39:32;16.10;99.90
20141;DHT22;10231;47.702;9.826;2023-07-29T03:41:58;16.20;99.90
20141;DHT22;10231;47.702;9.826;2023-07-29T03:44:24;16.20;99.90
20141;DHT22;10231;47.702;9.826;2023-07-29T03:46:49;16.20;99.90
20141;DHT22;10231;47.702;9.826;2023-07-29T03:49:15;16.20;99.90
20141;DHT22;10231;47.702;9.826;2023-07-29T03:51:40;16.30;99.90
20141;DHT22;10231;47.702;9.826;2023-07-29T03:54:06;16.20;99.90
20141;DHT22;10231;47.702;9.826;2023-07-29T03:56:32;16.30;99.90
20141;DHT22;10231;47.702;9.826;2023-07-29T03:59:06;16.30;99.90
20141;DHT22;10231;47.702;9.826;2023-07-29T04:01:32;16.30;99.90
20141;DHT22;10231;47.702;9.826;2023-07-29T04:03:58;16.30;99.90
20141;DHT22;10231;47.702;9.826;2023-07-29T04:06:24;16.40;99.90
20141;DHT22;10231;47.702;9.826;2023-07-29T04:08:50;16.40;99.90
20141;DHT22;10231;47.702;9.826;2023-07-29T04:11:15;16.30;99.90
20141;DHT22;10231;47.702;9.826;2023-07-29T04:13:41;16.30;99.90
20141;DHT22;10231;47.702;9.826;2023-07-29T04:16:07;16.30;99.90
20141;DHT22;10231;47.702;9.826;2023-07-29T04:18:33;16.30;99.90
20141;DHT22;10231;47.702;9.826;2023-07-29T04:20:58;16.30;99.90
20141;DHT22;10231;47.702;9.826;2023-07-29T04:23:24;16.20;99.90
20141;DHT22;10231;47.702;9.826;2023-07-29T04:25:50;16.20;99.90
20141;DHT22;10231;47.702;9.826;2023-07-29T04:28:15;16.30;99.90
20141;DHT22;10231;47.702;9.826;2023-07-29T04:30:41;16.30;99.90
20141;DHT22;10231;47.702;9.826;2023-07-29T04:33:07;16.30;99.90
20141;DHT22;10231;47.702;9.826;2023-07-29T04:35:32;16.30;99.90
20141;DHT22;10231;47.702;9.826;2023-07-29T04:37:58;16.50;99.90
20141;DHT22;10231;47.702;9.826;2023-07-29T04:40:23;16.40;99.90
20141;DHT22;10231;47.702;9.826;2023-07-29T04:42:49;16.50;99.90
20141;DHT22;10231;47.702;9.826;2023-07-29T04:45:15;16.40;99.90
20141;DHT22;10231;47.702;9.826;2023-07-29T04:47:41;16.50;99.90
20141;DHT22;10231;47.702;9.826;2023-07-29T04:50:07;16.50;99.90
20141;DHT22;10231;47.702;9.826;2023-07-29T04:52:33;16.50;99.90
20141;DHT22;10231;47.702;9.826;2023-07-29T04:54:58;16.50;99.90
20141;DHT22;10231;47.702;9.826;2023-07-29T04:57:24;16.50;99.90
20141;DHT22;10231;47.702;9.826;2023-07-29T04:59:49;16.50;99.90
20141;DHT22;10231;47.702;9.826;2023-07-29T05:02:15;16.60;99.90
20141;DHT22;10231;47.702;9.826;2023-07-29T05:04:40;16.80;99.90
20141;DHT22;10231;47.702;9.826;2023-07-29T05:07:06;16.80;99.90
20141;DHT22;10231;47.702;9.826;2023-07-29T05:09:32;16.80;99.90
20141;DHT22;10231;47.702;9.826;2023-07-29T05:11:57;16.80;99.90
20141;DHT22;10231;47.702;9.826;2023-07-29T05:14:23;16.90;99.90
20141;DHT22;10231;47.702;9.826;2023-07-29T05:16:49;16.90;99.90
20141;DHT22;10231;47.702;9.826;2023-07-29T05:19:15;16.90;99.90
20141;DHT22;10231;47.702;9.826;2023-07-29T05:21:40;16.90;99.90
20141;DHT22;10231;47.702;9.826;2023-07-29T05:24:06;16.90;99.90
20141;DHT22;10231;47.702;9.826;2023-07-29T05:26:31;16.90;99.90
20141;DHT22;10231;47.702;9.826;2023-07-29T05:28:57;16.90;99.90
20141;DHT22;10231;47.702;9.826;2023-07-29T05:31:22;16.90;99.90
20141;DHT22;10231;47.702;9.826;2023-07-29T05:33:48;17.00;99.90
20141;DHT22;10231;47.702;9.826;2023-07-29T05:36:14;17.00;99.90
20141;DHT22;10231;47.702;9.826;2023-07-29T05:38:39;17.00;99.90
20141;DHT22;10231;47.702;9.826;2023-07-29T05:41:05;17.00;99.90
20141;DHT22;10231;47.702;9.826;2023-07-29T05:43:30;17.10;99.90
20141;DHT22;10231;47.702;9.826;2023-07-29T05:45:56;17.00;99.90
20141;DHT22;10231;47.702;9.826;2023-07-29T05:48:21;17.10;99.90
20141;DHT22;10231;47.702;9.826;2023-07-29T05:50:47;17.10;99.90
20141;DHT22;10231;47.702;9.826;2023-07-29T05:53:14;17.10;99.90
20141;DHT22;10231;47.702;9.826;2023-07-29T05:55:40;17.10;99.90
20141;DHT22;10231;47.702;9.826;2023-07-29T05:58:05;17.20;99.90
20141;DHT22;10231;47.702;9.826;2023-07-29T06:00:31;17.20;99.90
20141;DHT22;10231;47.702;9.826;2023-07-29T06:02:57;17.20;99.90
20141;DHT22;10231;47.702;9.826;2023-07-29T06:05:22;17.30;99.90
20141;DHT22;10231;47.702;9.826;2023-07-29T06:07:48;17.30;99.90
20141;DHT22;10231;47.702;9.826;2023-07-29T06:10:15;17.40;99.90
20141;DHT22;10231;47.702;9.826;2023-07-29T06:12:44;17.40;99.90
20141;DHT22;10231;47.702;9.826;2023-07-29T06:15:10;17.50;99.90
20141;DHT22;10231;47.702;9.826;2023-07-29T06:17:35;17.60;99.90
20141;DHT22;10231;47.702;9.826;2023-07-29T06:20:01;17.70;99.90
20141;DHT22;10231;47.702;9.826;2023-07-29T06:22:26;17.70;99.90
20141;DHT22;10231;47.702;9.826;2023-07-29T06:24:52;17.70;99.90
20141;DHT22;10231;47.702;9.826;2023-07-29T06:27:17;17.70;99.90
20141;DHT22;10231;47.702;9.826;2023-07-29T06:29:43;17.70;99.90
20141;DHT22;10231;47.702;9.826;2023-07-29T06:32:09;17.80;99.90
20141;DHT22;10231;47.702;9.826;2023-07-29T06:34:34;17.80;99.90
20141;DHT22;10231;47.702;9.826;2023-07-29T06:37:00;17.80;99.90
20141;DHT22;10231;47.702;9.826;2023-07-29T06:39:25;17.80;99.90
20141;DHT22;10231;47.702;9.826;2023-07-29T06:41:51;17.80;99.90
20141;DHT22;10231;47.702;9.826;2023-07-29T06:44:16;17.80;99.90
20141;DHT22;10231;47.702;9.826;2023-07-29T06:46:42;17.80;99.90
20141;DHT22;10231;47.702;9.826;2023-07-29T06:49:07;17.90;99.90
20141;DHT22;10231;47.702;9.826;2023-07-29T06:51:33;18.00;99.90
20141;DHT22;10231;47.702;9.826;2023-07-29T06:54:03;18.00;99.90
20141;DHT22;10231;47.702;9.826;2023-07-29T06:56:29;18.00;99.90
20141;DHT22;10231;47.702;9.826;2023-07-29T06:58:55;18.10;99.90
20141;DHT22;10231;47.702;9.826;2023-07-29T07:01:20;18.20;99.90
20141;DHT22;10231;47.702;9.826;2023-07-29T07:03:46;18.30;99.90
20141;DHT22;10231;47.702;9.826;2023-07-29T07:06:11;18.30;99.90
20141;DHT22;10231;47.702;9.826;2023-07-29T07:08:37;18.50;99.90
20141;DHT22;10231;47.702;9.826;2023-07-29T07:11:03;18.60;99.90
20141;DHT22;10231;47.702;9.826;2023-07-29T07:13:28;18.60;99.90
20141;DHT22;10231;47.702;9.826;2023-07-29T07:15:55;18.80;99.90
20141;DHT22;10231;47.702;9.826;2023-07-29T07:18:21;18.70;99.90
20141;DHT22;10231;47.702;9.826;2023-07-29T07:20:49;18.90;99.90
20141;DHT22;10231;47.702;9.826;2023-07-29T07:23:16;18.90;99.90
20141;DHT22;10231;47.702;9.826;2023-07-29T07:25:41;18.90;99.90
20141;DHT22;10231;47.702;9.826;2023-07-29T07:28:11;19.00;99.90
20141;DHT22;10231;47.702;9.826;2023-07-29T07:30:40;19.00;99.90
20141;DHT22;10231;47.702;9.826;2023-07-29T07:33:06;19.10;99.90
20141;DHT22;10231;47.702;9.826;2023-07-29T07:35:32;19.20;99.90
20141;DHT22;10231;47.702;9.826;2023-07-29T07:37:57;19.20;99.90
20141;DHT22;10231;47.702;9.826;2023-07-29T07:40:24;19.30;99.90
20141;DHT22;10231;47.702;9.826;2023-07-29T07:42:50;19.40;99.90
20141;DHT22;10231;47.702;9.826;2023-07-29T07:45:15;19.30;99.90
20141;DHT22;10231;47.702;9.826;2023-07-29T07:47:43;19.30;99.90
20141;DHT22;10231;47.702;9.826;2023-07-29T07:50:09;19.40;99.90
20141;DHT22;10231;47.702;9.826;2023-07-29T07:52:34;19.40;99.90
20141;DHT22;10231;47.702;9.826;2023-07-29T07:55:00;19.50;99.90
20141;DHT22;10231;47.702;9.826;2023-07-29T07:57:26;19.50;99.90
20141;DHT22;10231;47.702;9.826;2023-07-29T07:59:51;19.60;99.90
20141;DHT22;10231;47.702;9.826;2023-07-29T08:02:18;19.60;99.90
20141;DHT22;10231;47.702;9.826;2023-07-29T08:04:43;19.60;99.90
20141;DHT22;10231;47.702;9.826;2023-07-29T08:07:09;19.70;99.90
20141;DHT22;10231;47.702;9.826;2023-07-29T08:09:34;19.70;99.90
20141;DHT22;10231;47.702;9.826;2023-07-29T08:12:00;19.80;99.90
20141;DHT22;10231;47.702;9.826;2023-07-29T08:14:26;19.80;99.90
20141;DHT22;10231;47.702;9.826;2023-07-29T08:16:52;19.90;99.90
20141;DHT22;10231;47.702;9.826;2023-07-29T08:19:18;20.00;99.90
20141;DHT22;10231;47.702;9.826;2023-07-29T08:21:43;20.10;99.90
20141;DHT22;10231;47.702;9.826;2023-07-29T08:24:09;20.10;99.90
20141;DHT22;10231;47.702;9.826;2023-07-29T08:26:34;20.10;99.90
20141;DHT22;10231;47.702;9.826;2023-07-29T08:29:00;20.30;99.90
20141;DHT22;10231;47.702;9.826;2023-07-29T08:31:26;20.30;99.90
20141;DHT22;10231;47.702;9.826;2023-07-29T08:33:51;20.40;99.90
20141;DHT22;10231;47.702;9.826;2023-07-29T08:36:17;20.40;99.90
20141;DHT22;10231;47.702;9.826;2023-07-29T08:38:43;20.40;99.90
20141;DHT22;10231;47.702;9.826;2023-07-29T08:41:24;20.40;99.90
20141;DHT22;10231;47.702;9.826;2023-07-29T08:44:09;20.40;99.90
20141;DHT22;10231;47.702;9.826;2023-07-29T08:46:35;20.40;99.90
20141;DHT22;10231;47.702;9.826;2023-07-29T08:49:01;20.50;99.90
20141;DHT22;10231;47.702;9.826;2023-07-29T08:51:27;20.60;99.90
20141;DHT22;10231;47.702;9.826;2023-07-29T08:53:54;20.60;99.90
20141;DHT22;10231;47.702;9.826;2023-07-29T08:56:20;20.60;99.90
20141;DHT22;10231;47.702;9.826;2023-07-29T08:58:46;20.60;99.90
20141;DHT22;10231;47.702;9.826;2023-07-29T09:01:12;20.70;99.90
20141;DHT22;10231;47.702;9.826;2023-07-29T09:03:38;20.80;99.90
20141;DHT22;10231;47.702;9.826;2023-07-29T09:06:04;20.80;99.90
20141;DHT22;10231;47.702;9.826;2023-07-29T09:08:30;20.80;99.90
20141;DHT22;10231;47.702;9.826;2023-07-29T09:10:56;21.00;99.90
20141;DHT22;10231;47.702;9.826;2023-07-29T09:13:22;21.00;99.90
20141;DHT22;10231;47.702;9.826;2023-07-29T09:15:48;21.10;99.90
20141;DHT22;10231;47.702;9.826;2023-07-29T09:18:18;21.20;99.90
20141;DHT22;10231;47.702;9.826;2023-07-29T09:20:47;21.30;99.90
20141;DHT22;10231;47.702;9.826;2023-07-29T09:23:13;21.30;99.90
20141;DHT22;10231;47.702;9.826;2023-07-29T09:25:39;21.30;99.90
20141;DHT22;10231;47.702;9.826;2023-07-29T09:28:10;21.40;99.90
20141;DHT22;10231;47.702;9.826;2023-07-29T09:30:40;21.40;99.90
20141;DHT22;10231;47.702;9.826;2023-07-29T09:33:06;21.40;99.90
20141;DHT22;10231;47.702;9.826;2023-07-29T09:35:34;21.50;99.90
20141;DHT22;10231;47.702;9.826;2023-07-29T09:38:00;21.50;99.90
20141;DHT22;10231;47.702;9.826;2023-07-29T09:40:26;21.70;99.90
20141;DHT22;10231;47.702;9.826;2023-07-29T09:42:54;21.70;99.90
20141;DHT22;10231;47.702;9.826;2023-07-29T09:45:24;21.80;99.90
20141;DHT22;10231;47.702;9.826;2023-07-29T09:47:51;21.80;99.90
20141;DHT22;10231;47.702;9.826;2023-07-29T09:50:16;21.90;99.90
20141;DHT22;10231;47.702;9.826;2023-07-29T09:52:43;21.90;99.90
20141;DHT22;10231;47.702;9.826;2023-07-29T09:55:12;21.90;99.90
20141;DHT22;10231;47.702;9.826;2023-07-29T09:57:41;21.90;99.90
20141;DHT22;10231;47.702;9.826;2023-07-29T10:00:11;21.90;99.90
20141;DHT22;10231;47.702;9.826;2023-07-29T10:02:41;21.90;99.90
20141;DHT22;10231;47.702;9.826;2023-07-29T10:05:08;21.90;99.90
20141;DHT22;10231;47.702;9.826;2023-07-29T10:07:38;22.00;99.90
20141;DHT22;10231;47.702;9.826;2023-07-29T10:10:05;22.00;99.90
20141;DHT22;10231;47.702;9.826;2023-07-29T10:12:31;22.10;99.90
20141;DHT22;10231;47.702;9.826;2023-07-29T10:15:03;22.30;99.90
20141;DHT22;10231;47.702;9.826;2023-07-29T10:17:30;22.40;99.90
20141;DHT22;10231;47.702;9.826;2023-07-29T10:19:56;22.30;99.90
20141;DHT22;10231;47.702;9.826;2023-07-29T10:22:28;22.40;99.90
20141;DHT22;10231;47.702;9.826;2023-07-29T10:25:10;22.40;99.90
20141;DHT22;10231;47.702;9.826;2023-07-29T10:28:04;22.40;99.90
20141;DHT22;10231;47.702;9.826;2023-07-29T10:30:30;22.50;99.90
20141;DHT22;10231;47.702;9.826;2023-07-29T10:32:58;22.50;99.90
20141;DHT22;10231;47.702;9.826;2023-07-29T10:35:24;22.50;99.90
20141;DHT22;10231;47.702;9.826;2023-07-29T10:37:51;22.50;99.90
20141;DHT22;10231;47.702;9.826;2023-07-29T10:40:18;22.60;99.90
20141;DHT22;10231;47.702;9.826;2023-07-29T10:43:02;22.60;99.90
20141;DHT22;10231;47.702;9.826;2023-07-29T10:45:39;22.70;99.90
20141;DHT22;10231;47.702;9.826;2023-07-29T10:48:12;22.60;99.90
20141;DHT22;10231;47.702;9.826;2023-07-29T10:50:38;22.60;99.90
20141;DHT22;10231;47.702;9.826;2023-07-29T10:53:05;22.70;99.90
20141;DHT22;10231;47.702;9.826;2023-07-29T10:55:35;22.70;99.90
20141;DHT22;10231;47.702;9.826;2023-07-29T10:58:14;22.80;99.90
20141;DHT22;10231;47.702;9.826;2023-07-29T11:00:44;22.90;99.90
20141;DHT22;10231;47.702;9.826;2023-07-29T11:03:12;22.90;99.90
20141;DHT22;10231;47.702;9.826;2023-07-29T11:05:49;22.90;99.90
20141;DHT22;10231;47.702;9.826;2023-07-29T11:08:19;22.90;99.90
20141;DHT22;10231;47.702;9.826;2023-07-29T11:11:01;22.90;99.90
20141;DHT22;10231;47.702;9.826;2023-07-29T11:13:31;22.90;99.90
20141;DHT22;10231;47.702;9.826;2023-07-29T11:15:58;23.00;99.90
20141;DHT22;10231;47.702;9.826;2023-07-29T11:18:34;23.10;99.90
20141;DHT22;10231;47.702;9.826;2023-07-29T11:21:02;23.10;99.90
20141;DHT22;10231;47.702;9.826;2023-07-29T11:23:35;23.20;99.90
20141;DHT22;10231;47.702;9.826;2023-07-29T11:26:01;23.10;99.90
20141;DHT22;10231;47.702;9.826;2023-07-29T11:28:28;23.10;99.90
20141;DHT22;10231;47.702;9.826;2023-07-29T11:30:55;23.10;99.90
20141;DHT22;10231;47.702;9.826;2023-07-29T11:33:22;23.10;99.90
20141;DHT22;10231;47.702;9.826;2023-07-29T11:35:49;23.10;99.90
20141;DHT22;10231;47.702;9.826;2023-07-29T11:38:16;23.00;99.90
20141;DHT22;10231;47.702;9.826;2023-07-29T11:40:42;23.10;99.90
20141;DHT22;10231;47.702;9.826;2023-07-29T11:43:07;23.20;99.90
20141;DHT22;10231;47.702;9.826;2023-07-29T11:45:33;23.30;99.90
20141;DHT22;10231;47.702;9.826;2023-07-29T11:48:00;23.40;99.90
20141;DHT22;10231;47.702;9.826;2023-07-29T11:50:26;23.40;99.90
20141;DHT22;10231;47.702;9.826;2023-07-29T11:52:52;23.50;99.90
20141;DHT22;10231;47.702;9.826;2023-07-29T11:55:18;23.60;99.90
20141;DHT22;10231;47.702;9.826;2023-07-29T11:57:46;23.70;99.90
20141;DHT22;10231;47.702;9.826;2023-07-29T12:00:16;23.70;99.90
20141;DHT22;10231;47.702;9.826;2023-07-29T12:02:43;23.70;99.90
20141;DHT22;10231;47.702;9.826;2023-07-29T12:05:10;23.90;99.90
20141;DHT22;10231;47.702;9.826;2023-07-29T12:07:42;23.90;99.90
20141;DHT22;10231;47.702;9.826;2023-07-29T12:10:08;23.80;99.90
20141;DHT22;10231;47.702;9.826;2023-07-29T12:12:45;23.80;99.90
20141;DHT22;10231;47.702;9.826;2023-07-29T12:15:11;23.80;99.90
20141;DHT22;10231;47.702;9.826;2023-07-29T12:17:40;23.70;99.90
20141;DHT22;10231;47.702;9.826;2023-07-29T12:20:09;23.70;99.90
20141;DHT22;10231;47.702;9.826;2023-07-29T12:22:35;23.80;99.90
20141;DHT22;10231;47.702;9.826;2023-07-29T12:25:01;23.80;99.90
20141;DHT22;10231;47.702;9.826;2023-07-29T12:27:30;23.80;99.90
20141;DHT22;10231;47.702;9.826;2023-07-29T12:29:56;23.90;99.90
20141;DHT22;10231;47.702;9.826;2023-07-29T12:32:25;23.90;99.90
20141;DHT22;10231;47.702;9.826;2023-07-29T12:34:53;24.00;99.90
20141;DHT22;10231;47.702;9.826;2023-07-29T12:37:18;24.00;99.90
20141;DHT22;10231;47.702;9.826;2023-07-29T12:39:44;24.00;99.90
20141;DHT22;10231;47.702;9.826;2023-07-29T12:42:10;24.00;99.90
20141;DHT22;10231;47.702;9.826;2023-07-29T12:44:37;23.90;99.90
20141;DHT22;10231;47.702;9.826;2023-07-29T12:47:04;23.90;99.90
20141;DHT22;10231;47.702;9.826;2023-07-29T12:49:30;23.80;99.90
20141;DHT22;10231;47.702;9.826;2023-07-29T12:51:58;23.80;99.90
20141;DHT22;10231;47.702;9.826;2023-07-29T12:54:25;23.70;99.90
20141;DHT22;10231;47.702;9.826;2023-07-29T12:56:50;23.70;99.90
20141;DHT22;10231;47.702;9.826;2023-07-29T12:59:16;23.60;99.90
20141;DHT22;10231;47.702;9.826;2023-07-29T13:01:42;23.50;99.90
20141;DHT22;10231;47.702;9.826;2023-07-29T13:04:09;23.50;99.90
20141;DHT22;10231;47.702;9.826;2023-07-29T13:06:34;23.50;99.90
20141;DHT22;10231;47.702;9.826;2023-07-29T13:09:00;23.40;99.90
20141;DHT22;10231;47.702;9.826;2023-07-29T13:11:25;23.30;99.90
20141;DHT22;10231;47.702;9.826;2023-07-29T13:13:51;23.30;99.90
20141;DHT22;10231;47.702;9.826;2023-07-29T13:16:17;23.20;99.90
20141;DHT22;10231;47.702;9.826;2023-07-29T13:18:43;23.10;99.90
20141;DHT22;10231;47.702;9.826;2023-07-29T13:21:09;23.00;99.90
20141;DHT22;10231;47.702;9.826;2023-07-29T13:23:35;22.90;99.90
20141;DHT22;10231;47.702;9.826;2023-07-29T13:26:00;22.70;99.90
20141;DHT22;10231;47.702;9.826;2023-07-29T13:28:26;22.70;99.90
20141;DHT22;10231;47.702;9.826;2023-07-29T13:30:52;22.60;99.90
20141;DHT22;10231;47.702;9.826;2023-07-29T13:33:17;22.50;99.90
20141;DHT22;10231;47.702;9.826;2023-07-29T13:35:43;22.40;99.90
20141;DHT22;10231;47.702;9.826;2023-07-29T13:38:08;22.20;99.90
20141;DHT22;10231;47.702;9.826;2023-07-29T13:40:34;22.20;99.90
20141;DHT22;10231;47.702;9.826;2023-07-29T13:43:00;22.10;99.90
20141;DHT22;10231;47.702;9.826;2023-07-29T13:45:26;22.10;99.90
20141;DHT22;10231;47.702;9.826;2023-07-29T13:47:51;22.10;99.90
20141;DHT22;10231;47.702;9.826;2023-07-29T13:50:17;22.00;99.90
20141;DHT22;10231;47.702;9.826;2023-07-29T13:52:43;22.00;99.90
20141;DHT22;10231;47.702;9.826;2023-07-29T13:55:09;21.90;99.90
20141;DHT22;10231;47.702;9.826;2023-07-29T13:57:36;21.90;99.90
20141;DHT22;10231;47.702;9.826;2023-07-29T14:00:03;21.90;99.90
20141;DHT22;10231;47.702;9.826;2023-07-29T14:02:29;21.80;99.90
20141;DHT22;10231;47.702;9.826;2023-07-29T14:04:56;21.80;99.90
20141;DHT22;10231;47.702;9.826;2023-07-29T14:07:22;21.70;99.90
20141;DHT22;10231;47.702;9.826;2023-07-29T14:09:47;21.60;99.90
20141;DHT22;10231;47.702;9.826;2023-07-29T14:12:13;21.50;99.90
20141;DHT22;10231;47.702;9.826;2023-07-29T14:14:41;21.40;99.90
20141;DHT22;10231;47.702;9.826;2023-07-29T14:17:06;21.20;99.90
20141;DHT22;10231;47.702;9.826;2023-07-29T14:19:34;21.20;99.90
20141;DHT22;10231;47.702;9.826;2023-07-29T14:21:59;21.10;99.90
20141;DHT22;10231;47.702;9.826;2023-07-29T14:24:25;21.10;99.90
20141;DHT22;10231;47.702;9.826;2023-07-29T14:26:51;21.00;99.90
20141;DHT22;10231;47.702;9.826;2023-07-29T14:29:16;20.90;99.90
20141;DHT22;10231;47.702;9.826;2023-07-29T14:31:42;20.90;99.90
20141;DHT22;10231;47.702;9.826;2023-07-29T14:34:07;20.80;99.90
20141;DHT22;10231;47.702;9.826;2023-07-29T14:36:33;20.60;99.90
20141;DHT22;10231;47.702;9.826;2023-07-29T14:38:58;20.40;99.90
20141;DHT22;10231;47.702;9.826;2023-07-29T14:41:24;20.20;99.90
20141;DHT22;10231;47.702;9.826;2023-07-29T14:43:49;20.10;99.90
20141;DHT22;10231;47.702;9.826;2023-07-29T14:46:15;20.10;99.90
20141;DHT22;10231;47.702;9.826;2023-07-29T14:48:40;20.10;99.90
20141;DHT22;10231;47.702;9.826;2023-07-29T14:51:06;20.10;99.90
20141;DHT22;10231;47.702;9.826;2023-07-29T14:53:32;20.00;99.90
20141;DHT22;10231;47.702;9.826;2023-07-29T14:55:57;20.10;99.90
20141;DHT22;10231;47.702;9.826;2023-07-29T14:58:23;20.10;99.90
20141;DHT22;10231;47.702;9.826;2023-07-29T15:00:51;20.10;99.90
20141;DHT22;10231;47.702;9.826;2023-07-29T15:03:16;20.20;99.90
20141;DHT22;10231;47.702;9.826;2023-07-29T15:05:42;20.30;99.90
20141;DHT22;10231;47.702;9.826;2023-07-29T15:08:07;20.20;99.90
20141;DHT22;10231;47.702;9.826;2023-07-29T15:10:33;20.20;99.90
20141;DHT22;10231;47.702;9.826;2023-07-29T15:12:58;20.10;99.90
20141;DHT22;10231;47.702;9.826;2023-07-29T15:15:24;20.00;99.90
20141;DHT22;10231;47.702;9.826;2023-07-29T15:17:49;19.90;99.90
20141;DHT22;10231;47.702;9.826;2023-07-29T15:20:15;19.90;99.90
20141;DHT22;10231;47.702;9.826;2023-07-29T15:22:41;19.90;99.90
20141;DHT22;10231;47.702;9.826;2023-07-29T15:25:08;19.90;99.90
20141;DHT22;10231;47.702;9.826;2023-07-29T15:27:34;19.80;99.90
20141;DHT22;10231;47.702;9.826;2023-07-29T15:30:00;19.80;99.90
20141;DHT22;10231;47.702;9.826;2023-07-29T15:32:25;19.70;99.90
20141;DHT22;10231;47.702;9.826;2023-07-29T15:34:51;19.70;99.90